sensor_id;sensor_type;location;lat;lon;timestamp;temperature;humidity
4604;DHT22;2314;48.272;11.562;2022-07-29T00:02:05;19.20;99.90
4604;DHT22;2314;48.272;11.562;2022-07-29T00:04:34;19.20;99.90
4604;DHT22;2314;48.272;11.562;2022-07-29T00:07:02;19.20;99.90
4604;DHT22;2314;48.272;11.562;2022-07-29T00:09:30;19.10;99.90
4604;DHT22;2314;48.272;11.562;2022-07-29T00:11:59;19.00;99.90
4604;DHT22;2314;48.272;11.562;2022-07-29T00:14:28;19.00;99.90
4604;DHT22;2314;48.272;11.562;2022-07-29T00:16:56;18.90;99.90
4604;DHT22;2314;48.272;11.562;2022-07-29T00:19:23;18.90;99.90
4604;DHT22;2314;48.272;11.562;2022-07-29T00:21:50;18.80;99.90
4604;DHT22;2314;48.272;11.562;2022-07-29T00:24:17;18.80;99.90
4604;DHT22;2314;48.272;11.562;2022-07-29T00:26:45;18.80;99.90
4604;DHT22;2314;48.272;11.562;2022-07-29T00:29:13;18.80;99.90
4604;DHT22;2314;48.272;11.562;2022-07-29T00:31:40;18.80;99.90
4604;DHT22;2314;48.272;11.562;2022-07-29T00:34:09;18.80;99.90
4604;DHT22;2314;48.272;11.562;2022-07-29T00:36:57;18.80;99.90
4604;DHT22;2314;48.272;11.562;2022-07-29T00:39:23;18.80;99.90
4604;DHT22;2314;48.272;11.562;2022-07-29T00:41:50;18.80;99.90
4604;DHT22;2314;48.272;11.562;2022-07-29T00:44:18;18.70;99.90
4604;DHT22;2314;48.272;11.562;2022-07-29T00:46:46;18.60;99.90
4604;DHT22;2314;48.272;11.562;2022-07-29T00:49:14;18.60;99.90
4604;DHT22;2314;48.272;11.562;2022-07-29T00:51:42;18.50;99.90
4604;DHT22;2314;48.272;11.562;2022-07-29T00:54:12;18.50;99.90
4604;DHT22;2314;48.272;11.562;2022-07-29T00:56:39;18.40;99.90
4604;DHT22;2314;48.272;11.562;2022-07-29T00:59:06;18.30;99.90
4604;DHT22;2314;48.272;11.562;2022-07-29T01:01:33;18.40;99.90
4604;DHT22;2314;48.272;11.562;2022-07-29T01:04:02;18.30;99.90
4604;DHT22;2314;48.272;11.562;2022-07-29T01:06:32;18.30;99.90
4604;DHT22;2314;48.272;11.562;2022-07-29T01:08:59;18.30;99.90
4604;DHT22;2314;48.272;11.562;2022-07-29T01:11:27;18.30;99.90
4604;DHT22;2314;48.272;11.562;2022-07-29T01:13:55;18.30;99.90
4604;DHT22;2314;48.272;11.562;2022-07-29T01:16:27;18.30;99.90
4604;DHT22;2314;48.272;11.562;2022-07-29T01:19:04;18.30;99.90
4604;DHT22;2314;48.272;11.562;2022-07-29T01:21:50;18.40;99.90
4604;DHT22;2314;48.272;11.562;2022-07-29T01:24:34;18.30;99.90
4604;DHT22;2314;48.272;11.562;2022-07-29T01:27:22;18.30;99.90
4604;DHT22;2314;48.272;11.562;2022-07-29T01:30:02;18.40;99.90
4604;DHT22;2314;48.272;11.562;2022-07-29T01:32:33;18.40;99.90
4604;DHT22;2314;48.272;11.562;2022-07-29T01:35:04;18.40;99.90
4604;DHT22;2314;48.272;11.562;2022-07-29T01:37:39;18.40;99.90
4604;DHT22;2314;48.272;11.562;2022-07-29T01:40:17;18.30;99.90
4604;DHT22;2314;48.272;11.562;2022-07-29T01:42:50;18.20;99.90
4604;DHT22;2314;48.272;11.562;2022-07-29T01:45:24;18.10;99.90
4604;DHT22;2314;48.272;11.562;2022-07-29T01:48:02;18.00;99.90
4604;DHT22;2314;48.272;11.562;2022-07-29T01:50:34;18.00;99.90
4604;DHT22;2314;48.272;11.562;2022-07-29T01:53:07;17.90;99.90
4604;DHT22;2314;48.272;11.562;2022-07-29T01:55:39;17.90;99.90
4604;DHT22;2314;48.272;11.562;2022-07-29T01:58:09;17.90;99.90
4604;DHT22;2314;48.272;11.562;2022-07-29T02:00:39;17.90;99.90
4604;DHT22;2314;48.272;11.562;2022-07-29T02:03:09;17.90;99.90
4604;DHT22;2314;48.272;11.562;2022-07-29T02:05:39;17.90;99.90
4604;DHT22;2314;48.272;11.562;2022-07-29T02:08:10;17.90;99.90
4604;DHT22;2314;48.272;11.562;2022-07-29T02:10:40;17.80;99.90
4604;DHT22;2314;48.272;11.562;2022-07-29T02:13:10;17.80;99.90
4604;DHT22;2314;48.272;11.562;2022-07-29T02:15:41;17.80;99.90
4604;DHT22;2314;48.272;11.562;2022-07-29T02:18:13;17.70;99.90
4604;DHT22;2314;48.272;11.562;2022-07-29T02:20:45;17.80;99.90
4604;DHT22;2314;48.272;11.562;2022-07-29T02:23:18;17.70;99.90
4604;DHT22;2314;48.272;11.562;2022-07-29T02:25:48;17.70;99.90
4604;DHT22;2314;48.272;11.562;2022-07-29T02:28:19;17.70;99.90
4604;DHT22;2314;48.272;11.562;2022-07-29T02:30:49;17.70;99.90
4604;DHT22;2314;48.272;11.562;2022-07-29T02:33:18;17.80;99.90
4604;DHT22;2314;48.272;11.562;2022-07-29T02:35:47;17.70;99.90
4604;DHT22;2314;48.272;11.562;2022-07-29T02:38:16;17.70;99.90
4604;DHT22;2314;48.272;11.562;2022-07-29T02:41:04;17.70;99.90
4604;DHT22;2314;48.272;11.562;2022-07-29T02:43:37;17.70;99.90
4604;DHT22;2314;48.272;11.562;2022-07-29T02:46:11;17.70;99.90
4604;DHT22;2314;48.272;11.562;2022-07-29T02:48:47;17.70;99.90
4604;DHT22;2314;48.272;11.562;2022-07-29T02:51:27;17.70;99.90
4604;DHT22;2314;48.272;11.562;2022-07-29T02:53:57;17.60;99.90
4604;DHT22;2314;48.272;11.562;2022-07-29T02:56:32;17.60;99.90
4604;DHT22;2314;48.272;11.562;2022-07-29T02:59:06;17.50;99.90
4604;DHT22;2314;48.272;11.562;2022-07-29T03:01:42;17.50;99.90
4604;DHT22;2314;48.272;11.562;2022-07-29T03:04:11;17.40;99.90
4604;DHT22;2314;48.272;11.562;2022-07-29T03:06:40;17.40;99.90
4604;DHT22;2314;48.272;11.562;2022-07-29T03:09:10;17.30;99.90
4604;DHT22;2314;48.272;11.562;2022-07-29T03:11:39;17.30;99.90
4604;DHT22;2314;48.272;11.562;2022-07-29T03:14:06;17.20;99.90
4604;DHT22;2314;48.272;11.562;2022-07-29T03:16:34;17.30;99.90
4604;DHT22;2314;48.272;11.562;2022-07-29T03:19:04;17.30;99.90
4604;DHT22;2314;48.272;11.562;2022-07-29T03:21:32;17.30;99.90
4604;DHT22;2314;48.272;11.562;2022-07-29T03:24:00;17.20;99.90
4604;DHT22;2314;48.272;11.562;2022-07-29T03:26:28;17.20;99.90
4604;DHT22;2314;48.272;11.562;2022-07-29T03:28:55;17.10;99.90
4604;DHT22;2314;48.272;11.562;2022-07-29T03:31:22;17.10;99.90
4604;DHT22;2314;48.272;11.562;2022-07-29T03:33:49;17.00;99.90
4604;DHT22;2314;48.272;11.562;2022-07-29T03:36:19;16.90;99.90
4604;DHT22;2314;48.272;11.562;2022-07-29T03:38:47;16.90;99.90
4604;DHT22;2314;48.272;11.562;2022-07-29T03:41:16;16.80;99.90
4604;DHT22;2314;48.272;11.562;2022-07-29T03:43:44;16.80;99.90
4604;DHT22;2314;48.272;11.562;2022-07-29T03:46:15;16.80;99.90
4604;DHT22;2314;48.272;11.562;2022-07-29T03:48:46;16.80;99.90
4604;DHT22;2314;48.272;11.562;2022-07-29T03:51:15;16.70;99.90
4604;DHT22;2314;48.272;11.562;2022-07-29T03:53:44;16.70;99.90
4604;DHT22;2314;48.272;11.562;2022-07-29T03:56:15;16.70;99.90
4604;DHT22;2314;48.272;11.562;2022-07-29T03:58:44;16.70;99.90
4604;DHT22;2314;48.272;11.562;2022-07-29T04:01:11;16.60;99.90
4604;DHT22;2314;48.272;11.562;2022-07-29T04:03:39;16.60;99.90
4604;DHT22;2314;48.272;11.562;2022-07-29T04:06:07;16.60;99.90
4604;DHT22;2314;48.272;11.562;2022-07-29T04:08:34;16.60;99.90
4604;DHT22;2314;48.272;11.562;2022-07-29T04:11:04;16.60;99.90
4604;DHT22;2314;48.272;11.562;2022-07-29T04:13:32;16.60;99.90
4604;DHT22;2314;48.272;11.562;2022-07-29T04:15:59;16.60;99.90
4604;DHT22;2314;48.272;11.562;2022-07-29T04:18:27;16.50;99.90
4604;DHT22;2314;48.272;11.562;2022-07-29T04:20:54;16.60;99.90
4604;DHT22;2314;48.272;11.562;2022-07-29T04:23:21;16.60;99.90
4604;DHT22;2314;48.272;11.562;2022-07-29T04:25:48;16.60;99.90
4604;DHT22;2314;48.272;11.562;2022-07-29T04:28:17;16.70;99.90
4604;DHT22;2314;48.272;11.562;2022-07-29T04:30:44;16.70;99.90
4604;DHT22;2314;48.272;11.562;2022-07-29T04:33:11;16.70;99.90
4604;DHT22;2314;48.272;11.562;2022-07-29T04:35:38;16.70;99.90
4604;DHT22;2314;48.272;11.562;2022-07-29T04:38:06;16.70;99.90
4604;DHT22;2314;48.272;11.562;2022-07-29T04:40:34;16.70;99.90
4604;DHT22;2314;48.272;11.562;2022-07-29T04:43:01;16.80;99.90
4604;DHT22;2314;48.272;11.562;2022-07-29T04:45:29;16.80;99.90
4604;DHT22;2314;48.272;11.562;2022-07-29T04:47:57;16.90;99.90
4604;DHT22;2314;48.272;11.562;2022-07-29T04:50:24;16.90;99.90
4604;DHT22;2314;48.272;11.562;2022-07-29T04:52:51;17.00;99.90
4604;DHT22;2314;48.272;11.562;2022-07-29T04:55:18;17.10;99.90
4604;DHT22;2314;48.272;11.562;2022-07-29T04:57:45;17.20;99.90
4604;DHT22;2314;48.272;11.562;2022-07-29T05:00:13;17.30;99.90
4604;DHT22;2314;48.272;11.562;2022-07-29T05:02:42;17.30;99.90
4604;DHT22;2314;48.272;11.562;2022-07-29T05:05:09;17.40;99.90
4604;DHT22;2314;48.272;11.562;2022-07-29T05:07:36;17.50;99.90
4604;DHT22;2314;48.272;11.562;2022-07-29T05:10:04;17.60;99.90
4604;DHT22;2314;48.272;11.562;2022-07-29T05:12:32;17.60;99.90
4604;DHT22;2314;48.272;11.562;2022-07-29T05:14:59;17.70;99.90
4604;DHT22;2314;48.272;11.562;2022-07-29T05:17:26;17.70;99.90
4604;DHT22;2314;48.272;11.562;2022-07-29T05:19:55;17.80;99.90
4604;DHT22;2314;48.272;11.562;2022-07-29T05:22:22;17.80;99.90
4604;DHT22;2314;48.272;11.562;2022-07-29T05:24:49;17.80;99.90
4604;DHT22;2314;48.272;11.562;2022-07-29T05:27:16;17.90;99.90
4604;DHT22;2314;48.272;11.562;2022-07-29T05:29:43;17.90;99.90
4604;DHT22;2314;48.272;11.562;2022-07-29T05:32:11;18.00;99.90
4604;DHT22;2314;48.272;11.562;2022-07-29T05:34:38;17.90;99.90
4604;DHT22;2314;48.272;11.562;2022-07-29T05:37:07;17.90;99.90
4604;DHT22;2314;48.272;11.562;2022-07-29T05:39:34;17.90;99.90
4604;DHT22;2314;48.272;11.562;2022-07-29T05:42:01;18.00;99.90
4604;DHT22;2314;48.272;11.562;2022-07-29T05:44:28;18.10;99.90
4604;DHT22;2314;48.272;11.562;2022-07-29T05:46:55;18.20;99.90
4604;DHT22;2314;48.272;11.562;2022-07-29T05:49:22;18.40;99.90
4604;DHT22;2314;48.272;11.562;2022-07-29T05:51:49;18.60;99.90
4604;DHT22;2314;48.272;11.562;2022-07-29T05:54:18;18.80;99.90
4604;DHT22;2314;48.272;11.562;2022-07-29T05:56:45;19.00;99.90
4604;DHT22;2314;48.272;11.562;2022-07-29T05:59:12;19.20;99.90
4604;DHT22;2314;48.272;11.562;2022-07-29T06:01:39;19.20;99.90
4604;DHT22;2314;48.272;11.562;2022-07-29T06:04:07;19.40;99.90
4604;DHT22;2314;48.272;11.562;2022-07-29T06:06:34;19.60;99.90
4604;DHT22;2314;48.272;11.562;2022-07-29T06:09:02;19.80;99.90
4604;DHT22;2314;48.272;11.562;2022-07-29T06:11:30;19.90;99.90
4604;DHT22;2314;48.272;11.562;2022-07-29T06:13:57;19.80;99.90
4604;DHT22;2314;48.272;11.562;2022-07-29T06:16:25;19.80;99.90
4604;DHT22;2314;48.272;11.562;2022-07-29T06:18:52;19.90;99.90
4604;DHT22;2314;48.272;11.562;2022-07-29T06:21:19;19.90;99.90
4604;DHT22;2314;48.272;11.562;2022-07-29T06:23:46;20.00;99.90
4604;DHT22;2314;48.272;11.562;2022-07-29T06:26:13;20.20;99.90
4604;DHT22;2314;48.272;11.562;2022-07-29T06:28:42;20.30;99.90
4604;DHT22;2314;48.272;11.562;2022-07-29T06:31:09;20.30;99.90
4604;DHT22;2314;48.272;11.562;2022-07-29T06:33:36;20.40;99.90
4604;DHT22;2314;48.272;11.562;2022-07-29T06:36:04;20.50;99.90
4604;DHT22;2314;48.272;11.562;2022-07-29T06:38:33;20.40;99.90
4604;DHT22;2314;48.272;11.562;2022-07-29T06:41:00;20.50;99.90
4604;DHT22;2314;48.272;11.562;2022-07-29T06:43:29;20.50;99.90
4604;DHT22;2314;48.272;11.562;2022-07-29T06:46:01;20.50;99.90
4604;DHT22;2314;48.272;11.562;2022-07-29T06:48:30;20.50;99.90
4604;DHT22;2314;48.272;11.562;2022-07-29T06:50:58;20.50;99.90
4604;DHT22;2314;48.272;11.562;2022-07-29T06:53:26;20.50;99.90
4604;DHT22;2314;48.272;11.562;2022-07-29T06:55:53;20.50;99.90
4604;DHT22;2314;48.272;11.562;2022-07-29T06:58:20;20.60;99.90
4604;DHT22;2314;48.272;11.562;2022-07-29T07:00:48;20.70;99.90
4604;DHT22;2314;48.272;11.562;2022-07-29T07:03:17;20.70;99.90
4604;DHT22;2314;48.272;11.562;2022-07-29T07:05:45;20.80;99.90
4604;DHT22;2314;48.272;11.562;2022-07-29T07:08:13;20.90;99.90
4604;DHT22;2314;48.272;11.562;2022-07-29T07:10:41;21.00;99.90
4604;DHT22;2314;48.272;11.562;2022-07-29T07:13:09;21.20;99.90
4604;DHT22;2314;48.272;11.562;2022-07-29T07:15:36;21.40;99.90
4604;DHT22;2314;48.272;11.562;2022-07-29T07:18:03;21.40;99.90
4604;DHT22;2314;48.272;11.562;2022-07-29T07:20:32;21.40;99.90
4604;DHT22;2314;48.272;11.562;2022-07-29T07:23:00;21.40;99.90
4604;DHT22;2314;48.272;11.562;2022-07-29T07:25:27;21.40;99.90
4604;DHT22;2314;48.272;11.562;2022-07-29T07:27:54;21.40;99.90
4604;DHT22;2314;48.272;11.562;2022-07-29T07:30:21;21.60;99.90
4604;DHT22;2314;48.272;11.562;2022-07-29T07:32:48;21.80;99.90
4604;DHT22;2314;48.272;11.562;2022-07-29T07:35:16;22.00;99.90
4604;DHT22;2314;48.272;11.562;2022-07-29T07:37:44;22.10;99.90
4604;DHT22;2314;48.272;11.562;2022-07-29T07:40:12;22.00;99.90
4604;DHT22;2314;48.272;11.562;2022-07-29T07:42:39;22.00;99.90
4604;DHT22;2314;48.272;11.562;2022-07-29T07:45:08;21.90;99.90
4604;DHT22;2314;48.272;11.562;2022-07-29T07:47:36;21.90;99.90
4604;DHT22;2314;48.272;11.562;2022-07-29T07:50:04;22.00;99.90
4604;DHT22;2314;48.272;11.562;2022-07-29T07:52:33;22.00;99.90
4604;DHT22;2314;48.272;11.562;2022-07-29T07:55:01;21.90;99.90
4604;DHT22;2314;48.272;11.562;2022-07-29T07:57:28;21.90;99.90
4604;DHT22;2314;48.272;11.562;2022-07-29T07:59:55;22.00;99.90
4604;DHT22;2314;48.272;11.562;2022-07-29T08:02:22;22.10;99.90
4604;DHT22;2314;48.272;11.562;2022-07-29T08:04:49;22.30;99.90
4604;DHT22;2314;48.272;11.562;2022-07-29T08:07:16;22.40;99.90
4604;DHT22;2314;48.272;11.562;2022-07-29T08:09:43;22.60;99.90
4604;DHT22;2314;48.272;11.562;2022-07-29T08:12:11;22.60;99.90
4604;DHT22;2314;48.272;11.562;2022-07-29T08:14:38;22.60;99.90
4604;DHT22;2314;48.272;11.562;2022-07-29T08:17:05;22.60;99.90
4604;DHT22;2314;48.272;11.562;2022-07-29T08:19:32;22.80;99.90
4604;DHT22;2314;48.272;11.562;2022-07-29T08:21:59;22.90;99.90
4604;DHT22;2314;48.272;11.562;2022-07-29T08:24:26;23.10;99.90
4604;DHT22;2314;48.272;11.562;2022-07-29T08:27:19;23.20;99.90
4604;DHT22;2314;48.272;11.562;2022-07-29T08:29:46;23.30;99.90
4604;DHT22;2314;48.272;11.562;2022-07-29T08:32:14;23.50;99.90
4604;DHT22;2314;48.272;11.562;2022-07-29T08:34:41;23.80;99.90
4604;DHT22;2314;48.272;11.562;2022-07-29T08:37:10;23.80;99.90
4604;DHT22;2314;48.272;11.562;2022-07-29T08:39:37;24.00;99.90
4604;DHT22;2314;48.272;11.562;2022-07-29T08:42:05;24.60;99.10
4604;DHT22;2314;48.272;11.562;2022-07-29T08:44:34;25.30;99.30
4604;DHT22;2314;48.272;11.562;2022-07-29T08:47:02;25.90;96.80
4604;DHT22;2314;48.272;11.562;2022-07-29T08:49:30;27.20;94.20
4604;DHT22;2314;48.272;11.562;2022-07-29T08:52:00;27.80;87.80
4604;DHT22;2314;48.272;11.562;2022-07-29T08:54:28;28.90;88.00
4604;DHT22;2314;48.272;11.562;2022-07-29T08:56:56;29.60;76.70
4604;DHT22;2314;48.272;11.562;2022-07-29T08:59:25;29.30;75.00
4604;DHT22;2314;48.272;11.562;2022-07-29T09:01:57;29.10;71.70
4604;DHT22;2314;48.272;11.562;2022-07-29T09:04:29;28.00;76.70
4604;DHT22;2314;48.272;11.562;2022-07-29T09:07:00;27.50;84.30
4604;DHT22;2314;48.272;11.562;2022-07-29T09:09:31;27.40;86.80
4604;DHT22;2314;48.272;11.562;2022-07-29T09:12:00;27.60;87.30
4604;DHT22;2314;48.272;11.562;2022-07-29T09:14:29;28.80;89.10
4604;DHT22;2314;48.272;11.562;2022-07-29T09:16:57;30.00;79.30
4604;DHT22;2314;48.272;11.562;2022-07-29T09:19:27;30.20;70.50
4604;DHT22;2314;48.272;11.562;2022-07-29T09:21:57;29.80;71.20
4604;DHT22;2314;48.272;11.562;2022-07-29T09:24:29;29.40;72.40
4604;DHT22;2314;48.272;11.562;2022-07-29T09:27:17;28.70;74.90
4604;DHT22;2314;48.272;11.562;2022-07-29T09:29:47;28.60;76.30
4604;DHT22;2314;48.272;11.562;2022-07-29T09:32:16;29.30;71.90
4604;DHT22;2314;48.272;11.562;2022-07-29T09:34:44;29.40;72.90
4604;DHT22;2314;48.272;11.562;2022-07-29T09:37:11;29.50;72.00
4604;DHT22;2314;48.272;11.562;2022-07-29T09:39:39;28.70;71.70
4604;DHT22;2314;48.272;11.562;2022-07-29T09:42:11;28.30;76.20
4604;DHT22;2314;48.272;11.562;2022-07-29T09:44:44;27.40;80.20
4604;DHT22;2314;48.272;11.562;2022-07-29T09:47:12;26.80;83.40
4604;DHT22;2314;48.272;11.562;2022-07-29T09:49:54;26.80;87.30
4604;DHT22;2314;48.272;11.562;2022-07-29T09:52:24;27.20;85.10
4604;DHT22;2314;48.272;11.562;2022-07-29T09:54:51;27.40;82.50
4604;DHT22;2314;48.272;11.562;2022-07-29T09:57:24;27.00;82.30
4604;DHT22;2314;48.272;11.562;2022-07-29T10:00:04;26.60;87.30
4604;DHT22;2314;48.272;11.562;2022-07-29T10:02:35;26.00;90.90
4604;DHT22;2314;48.272;11.562;2022-07-29T10:05:06;26.40;91.90
4604;DHT22;2314;48.272;11.562;2022-07-29T10:07:46;26.50;90.10
4604;DHT22;2314;48.272;11.562;2022-07-29T10:10:21;27.30;90.30
4604;DHT22;2314;48.272;11.562;2022-07-29T10:12:51;27.90;82.70
4604;DHT22;2314;48.272;11.562;2022-07-29T10:15:21;28.10;81.60
4604;DHT22;2314;48.272;11.562;2022-07-29T10:17:50;27.80;81.90
4604;DHT22;2314;48.272;11.562;2022-07-29T10:20:19;27.70;85.40
4604;DHT22;2314;48.272;11.562;2022-07-29T10:22:47;27.70;83.40
4604;DHT22;2314;48.272;11.562;2022-07-29T10:25:15;27.30;86.20
4604;DHT22;2314;48.272;11.562;2022-07-29T10:27:44;26.90;84.20
4604;DHT22;2314;48.272;11.562;2022-07-29T10:30:12;27.20;87.90
4604;DHT22;2314;48.272;11.562;2022-07-29T10:32:53;27.30;86.80
4604;DHT22;2314;48.272;11.562;2022-07-29T10:35:52;27.30;85.40
4604;DHT22;2314;48.272;11.562;2022-07-29T10:38:55;27.20;84.90
4604;DHT22;2314;48.272;11.562;2022-07-29T10:41:49;27.00;89.40
4604;DHT22;2314;48.272;11.562;2022-07-29T10:44:23;27.20;84.20
4604;DHT22;2314;48.272;11.562;2022-07-29T10:46:52;28.10;89.20
4604;DHT22;2314;48.272;11.562;2022-07-29T10:49:21;28.40;79.00
4604;DHT22;2314;48.272;11.562;2022-07-29T10:52:09;28.70;80.10
4604;DHT22;2314;48.272;11.562;2022-07-29T10:54:47;29.10;78.20
4604;DHT22;2314;48.272;11.562;2022-07-29T10:57:21;29.00;80.00
4604;DHT22;2314;48.272;11.562;2022-07-29T11:00:32;29.20;73.40
4604;DHT22;2314;48.272;11.562;2022-07-29T11:02:59;29.30;74.70
4604;DHT22;2314;48.272;11.562;2022-07-29T11:05:26;29.20;75.40
4604;DHT22;2314;48.272;11.562;2022-07-29T11:08:24;29.30;75.00
4604;DHT22;2314;48.272;11.562;2022-07-29T11:10:53;29.70;74.70
4604;DHT22;2314;48.272;11.562;2022-07-29T11:14:02;29.70;68.80
4604;DHT22;2314;48.272;11.562;2022-07-29T11:16:58;30.30;68.90
4604;DHT22;2314;48.272;11.562;2022-07-29T11:19:28;29.90;66.40
4604;DHT22;2314;48.272;11.562;2022-07-29T11:21:56;29.10;69.70
4604;DHT22;2314;48.272;11.562;2022-07-29T11:24:26;29.40;70.50
4604;DHT22;2314;48.272;11.562;2022-07-29T11:27:12;29.60;66.10
4604;DHT22;2314;48.272;11.562;2022-07-29T11:29:49;29.50;66.40
4604;DHT22;2314;48.272;11.562;2022-07-29T11:32:18;29.70;64.70
4604;DHT22;2314;48.272;11.562;2022-07-29T11:34:47;30.00;67.10
4604;DHT22;2314;48.272;11.562;2022-07-29T11:37:22;29.60;61.70
4604;DHT22;2314;48.272;11.562;2022-07-29T11:40:15;29.30;65.90
4604;DHT22;2314;48.272;11.562;2022-07-29T11:42:44;29.20;67.00
4604;DHT22;2314;48.272;11.562;2022-07-29T11:45:19;29.10;58.70
4604;DHT22;2314;48.272;11.562;2022-07-29T11:47:55;29.60;57.10
4604;DHT22;2314;48.272;11.562;2022-07-29T11:50:33;30.40;59.70
4604;DHT22;2314;48.272;11.562;2022-07-29T11:53:02;30.10;56.70
4604;DHT22;2314;48.272;11.562;2022-07-29T11:55:31;29.70;56.50
4604;DHT22;2314;48.272;11.562;2022-07-29T11:58:01;29.80;58.80
4604;DHT22;2314;48.272;11.562;2022-07-29T12:00:30;29.80;56.70
4604;DHT22;2314;48.272;11.562;2022-07-29T12:03:00;29.70;51.50
4604;DHT22;2314;48.272;11.562;2022-07-29T12:05:37;29.80;54.00
4604;DHT22;2314;48.272;11.562;2022-07-29T12:08:08;29.70;51.20
4604;DHT22;2314;48.272;11.562;2022-07-29T12:10:38;29.40;56.60
4604;DHT22;2314;48.272;11.562;2022-07-29T12:13:06;28.80;55.70
4604;DHT22;2314;48.272;11.562;2022-07-29T12:15:34;28.90;58.30
4604;DHT22;2314;48.272;11.562;2022-07-29T12:18:13;28.80;52.60
4604;DHT22;2314;48.272;11.562;2022-07-29T12:20:41;28.80;50.60
4604;DHT22;2314;48.272;11.562;2022-07-29T12:23:09;28.90;52.60
4604;DHT22;2314;48.272;11.562;2022-07-29T12:25:41;28.70;51.80
4604;DHT22;2314;48.272;11.562;2022-07-29T12:28:10;28.50;49.90
4604;DHT22;2314;48.272;11.562;2022-07-29T12:30:41;28.40;54.30
4604;DHT22;2314;48.272;11.562;2022-07-29T12:33:18;28.20;58.00
4604;DHT22;2314;48.272;11.562;2022-07-29T12:35:49;28.50;62.30
4604;DHT22;2314;48.272;11.562;2022-07-29T12:38:17;28.30;60.70
4604;DHT22;2314;48.272;11.562;2022-07-29T12:40:48;28.30;58.40
4604;DHT22;2314;48.272;11.562;2022-07-29T12:43:18;28.80;62.60
4604;DHT22;2314;48.272;11.562;2022-07-29T12:45:48;29.40;58.30
4604;DHT22;2314;48.272;11.562;2022-07-29T12:48:17;29.80;61.80
4604;DHT22;2314;48.272;11.562;2022-07-29T12:50:58;29.70;55.90
4604;DHT22;2314;48.272;11.562;2022-07-29T12:53:27;28.80;59.30
4604;DHT22;2314;48.272;11.562;2022-07-29T12:55:58;28.40;62.40
4604;DHT22;2314;48.272;11.562;2022-07-29T12:58:31;27.90;62.00
4604;DHT22;2314;48.272;11.562;2022-07-29T13:01:02;27.70;64.30
4604;DHT22;2314;48.272;11.562;2022-07-29T13:03:48;27.50;68.90
4604;DHT22;2314;48.272;11.562;2022-07-29T13:06:35;27.40;70.10
4604;DHT22;2314;48.272;11.562;2022-07-29T13:09:06;27.40;70.60
4604;DHT22;2314;48.272;11.562;2022-07-29T13:11:38;27.40;69.20
4604;DHT22;2314;48.272;11.562;2022-07-29T13:14:08;27.00;68.80
4604;DHT22;2314;48.272;11.562;2022-07-29T13:16:37;26.70;68.40
4604;DHT22;2314;48.272;11.562;2022-07-29T13:19:33;26.70;74.00
4604;DHT22;2314;48.272;11.562;2022-07-29T13:22:01;26.80;72.90
4604;DHT22;2314;48.272;11.562;2022-07-29T13:24:29;26.50;72.90
4604;DHT22;2314;48.272;11.562;2022-07-29T13:26:57;26.50;75.00
4604;DHT22;2314;48.272;11.562;2022-07-29T13:29:24;26.50;77.30
4604;DHT22;2314;48.272;11.562;2022-07-29T13:31:52;26.50;73.50
4604;DHT22;2314;48.272;11.562;2022-07-29T13:34:19;26.40;74.40
4604;DHT22;2314;48.272;11.562;2022-07-29T13:36:47;26.30;73.20
4604;DHT22;2314;48.272;11.562;2022-07-29T13:39:14;26.30;76.20
4604;DHT22;2314;48.272;11.562;2022-07-29T13:41:41;26.20;74.90
4604;DHT22;2314;48.272;11.562;2022-07-29T13:44:10;26.10;75.00
4604;DHT22;2314;48.272;11.562;2022-07-29T13:46:37;26.00;76.50
4604;DHT22;2314;48.272;11.562;2022-07-29T13:49:04;25.80;77.00
4604;DHT22;2314;48.272;11.562;2022-07-29T13:51:31;25.80;80.60
4604;DHT22;2314;48.272;11.562;2022-07-29T13:53:58;25.70;77.80
4604;DHT22;2314;48.272;11.562;2022-07-29T13:56:25;25.50;82.40
4604;DHT22;2314;48.272;11.562;2022-07-29T13:58:52;25.50;84.30
4604;DHT22;2314;48.272;11.562;2022-07-29T14:01:21;25.50;85.70
4604;DHT22;2314;48.272;11.562;2022-07-29T14:03:48;25.50;84.10
4604;DHT22;2314;48.272;11.562;2022-07-29T14:06:15;25.60;85.00
4604;DHT22;2314;48.272;11.562;2022-07-29T14:08:42;25.60;83.70
4604;DHT22;2314;48.272;11.562;2022-07-29T14:11:09;25.50;79.50
4604;DHT22;2314;48.272;11.562;2022-07-29T14:13:36;25.50;84.50
4604;DHT22;2314;48.272;11.562;2022-07-29T14:16:04;25.40;94.20
4604;DHT22;2314;48.272;11.562;2022-07-29T14:18:33;25.20;93.00
4604;DHT22;2314;48.272;11.562;2022-07-29T14:21:00;25.20;92.30
4604;DHT22;2314;48.272;11.562;2022-07-29T14:23:28;25.30;90.70
4604;DHT22;2314;48.272;11.562;2022-07-29T14:25:55;25.40;92.80
4604;DHT22;2314;48.272;11.562;2022-07-29T14:28:22;25.50;90.20
4604;DHT22;2314;48.272;11.562;2022-07-29T14:30:49;25.50;87.60
4604;DHT22;2314;48.272;11.562;2022-07-29T14:33:16;25.40;89.80
4604;DHT22;2314;48.272;11.562;2022-07-29T14:35:45;25.40;89.60
4604;DHT22;2314;48.272;11.562;2022-07-29T14:38:12;25.40;92.10
4604;DHT22;2314;48.272;11.562;2022-07-29T14:40:39;25.20;91.90
4604;DHT22;2314;48.272;11.562;2022-07-29T14:43:06;25.10;90.60
4604;DHT22;2314;48.272;11.562;2022-07-29T14:45:33;25.00;90.80
4604;DHT22;2314;48.272;11.562;2022-07-29T14:48:01;25.00;91.10
4604;DHT22;2314;48.272;11.562;2022-07-29T14:50:30;24.90;91.90
4604;DHT22;2314;48.272;11.562;2022-07-29T14:52:59;24.80;93.40
4604;DHT22;2314;48.272;11.562;2022-07-29T14:55:26;24.80;92.10
4604;DHT22;2314;48.272;11.562;2022-07-29T14:57:53;24.70;92.00
4604;DHT22;2314;48.272;11.562;2022-07-29T15:00:21;24.60;91.70
4604;DHT22;2314;48.272;11.562;2022-07-29T15:02:48;24.60;91.70
4604;DHT22;2314;48.272;11.562;2022-07-29T15:05:15;24.70;92.40
4604;DHT22;2314;48.272;11.562;2022-07-29T15:07:42;24.80;92.40
4604;DHT22;2314;48.272;11.562;2022-07-29T15:10:11;24.90;91.60
4604;DHT22;2314;48.272;11.562;2022-07-29T15:12:38;25.00;91.70
4604;DHT22;2314;48.272;11.562;2022-07-29T15:15:06;25.00;92.80
4604;DHT22;2314;48.272;11.562;2022-07-29T15:17:34;25.00;94.70
4604;DHT22;2314;48.272;11.562;2022-07-29T15:20:01;25.00;93.80
4604;DHT22;2314;48.272;11.562;2022-07-29T15:22:28;25.00;93.40
4604;DHT22;2314;48.272;11.562;2022-07-29T15:24:55;24.90;93.70
4604;DHT22;2314;48.272;11.562;2022-07-29T15:27:23;24.80;95.80
4604;DHT22;2314;48.272;11.562;2022-07-29T15:29:50;24.70;96.10
4604;DHT22;2314;48.272;11.562;2022-07-29T15:32:17;24.50;97.10
4604;DHT22;2314;48.272;11.562;2022-07-29T15:34:44;24.40;98.60
4604;DHT22;2314;48.272;11.562;2022-07-29T15:37:12;24.30;98.80
4604;DHT22;2314;48.272;11.562;2022-07-29T15:39:39;24.20;99.60
4604;DHT22;2314;48.272;11.562;2022-07-29T15:42:06;24.20;99.90
4604;DHT22;2314;48.272;11.562;2022-07-29T15:44:35;24.10;99.90
4604;DHT22;2314;48.272;11.562;2022-07-29T15:47:02;24.10;99.90
4604;DHT22;2314;48.272;11.562;2022-07-29T15:49:31;24.20;99.90
4604;DHT22;2314;48.272;11.562;2022-07-29T15:51:59;24.40;99.90
4604;DHT22;2314;48.272;11.562;2022-07-29T15:54:26;24.50;99.80
4604;DHT22;2314;48.272;11.562;2022-07-29T15:56:53;24.60;99.90
4604;DHT22;2314;48.272;11.562;2022-07-29T15:59:21;24.70;99.50
4604;DHT22;2314;48.272;11.562;2022-07-29T16:01:50;24.70;99.40
4604;DHT22;2314;48.272;11.562;2022-07-29T16:04:17;24.70;99.80